createdAt,value
2022-10-05T00:00:21.830Z,50.50
2022-10-05T00:02:52.350Z,50.10
2022-10-05T00:05:27.395Z,50.50
2022-10-05T00:07:55.725Z,50.90
2022-10-05T00:10:24.108Z,50.30
2022-10-05T00:12:52.024Z,50.10
2022-10-05T00:15:20.297Z,50.40
2022-10-05T00:17:48.429Z,51.00
2022-10-05T00:20:21.389Z,50.30
2022-10-05T00:22:49.225Z,50.40
2022-10-05T00:25:18.511Z,50.40
2022-10-05T00:27:47.624Z,50.40
2022-10-05T00:30:17.844Z,50.40
2022-10-05T00:32:45.930Z,50.40
2022-10-05T00:35:14.597Z,50.30
2022-10-05T00:37:44.189Z,50.40
2022-10-05T00:40:25.228Z,50.30
2022-10-05T00:42:56.388Z,50.60
2022-10-05T00:45:27.744Z,50.50
2022-10-05T00:47:58.781Z,50.50
2022-10-05T00:50:38.570Z,50.40
2022-10-05T00:53:12.975Z,50.50
2022-10-05T00:55:47.404Z,50.60
2022-10-05T00:58:18.612Z,50.50
2022-10-05T01:00:50.614Z,50.60
2022-10-05T01:03:20.681Z,50.40
2022-10-05T01:05:56.207Z,50.50
2022-10-05T01:08:30.136Z,50.70
2022-10-05T01:11:03.663Z,50.80
2022-10-05T01:13:33.913Z,50.80
2022-10-05T01:16:06.729Z,50.80
2022-10-05T01:18:39.037Z,50.70
2022-10-05T01:21:10.045Z,51.00
2022-10-05T01:24:15.927Z,50.80
2022-10-05T01:26:52.418Z,50.80
2022-10-05T01:29:23.773Z,50.90
2022-10-05T01:31:54.355Z,50.60
2022-10-05T01:34:25.217Z,50.90
2022-10-05T01:36:56.099Z,50.80
2022-10-05T01:39:26.074Z,50.90
2022-10-05T01:41:57.354Z,50.90
2022-10-05T01:44:29.589Z,51.00
2022-10-05T01:47:00.265Z,50.80
2022-10-05T01:49:38.157Z,50.90
2022-10-05T01:52:14.020Z,50.70
2022-10-05T01:54:46.173Z,50.80
2022-10-05T01:57:18.413Z,51.00
2022-10-05T01:59:55.928Z,50.80
2022-10-05T02:02:24.591Z,51.00
2022-10-05T02:05:01.900Z,51.00
2022-10-05T02:07:30.940Z,50.80
2022-10-05T02:10:00.851Z,51.00
2022-10-05T02:12:30.428Z,51.00
2022-10-05T02:15:02.517Z,50.80
2022-10-05T02:17:33.614Z,51.00
2022-10-05T02:20:03.120Z,51.10
2022-10-05T02:22:31.860Z,51.00
2022-10-05T02:25:01.992Z,51.20
2022-10-05T02:27:31.074Z,51.20
2022-10-05T02:30:02.945Z,51.30
2022-10-05T02:32:34.034Z,51.20
2022-10-05T02:35:03.460Z,51.30
2022-10-05T02:37:35.346Z,51.10
2022-10-05T02:40:10.843Z,51.20
2022-10-05T02:42:43.181Z,51.30
2022-10-05T02:45:16.581Z,51.30
2022-10-05T02:47:47.253Z,51.20
2022-10-05T02:50:18.357Z,51.40
2022-10-05T02:52:49.022Z,51.50
2022-10-05T02:55:19.501Z,51.60
2022-10-05T02:57:50.073Z,51.60
2022-10-05T03:00:20.567Z,51.60
2022-10-05T03:02:52.971Z,51.40
2022-10-05T03:05:23.626Z,51.50
2022-10-05T03:07:55.777Z,51.60
2022-10-05T03:10:28.862Z,51.70
2022-10-05T03:13:01.581Z,51.50
2022-10-05T03:15:46.646Z,51.60
2022-10-05T03:18:16.981Z,51.40
2022-10-05T03:20:48.755Z,51.50
2022-10-05T03:23:20.259Z,51.70
2022-10-05T03:26:13.073Z,51.90
2022-10-05T03:28:44.841Z,51.90
2022-10-05T03:31:16.308Z,51.60
2022-10-05T03:33:46.842Z,51.90
2022-10-05T03:36:18.914Z,51.80
2022-10-05T03:38:50.164Z,51.90
2022-10-05T03:41:21.617Z,51.90
2022-10-05T03:44:02.938Z,51.90
2022-10-05T03:46:45.829Z,52.10
2022-10-05T03:49:16.886Z,52.10
2022-10-05T03:51:46.899Z,52.10
2022-10-05T03:54:17.609Z,52.00
2022-10-05T03:56:47.908Z,52.00
2022-10-05T03:59:18.021Z,51.90
2022-10-05T04:01:50.947Z,52.10
2022-10-05T04:04:20.975Z,52.00
2022-10-05T04:06:49.349Z,52.00
2022-10-05T04:09:19.591Z,52.20
2022-10-05T04:11:50.957Z,52.00
2022-10-05T04:14:21.198Z,52.10
2022-10-05T04:16:52.681Z,51.90
2022-10-05T04:19:22.393Z,52.20
2022-10-05T04:21:52.244Z,52.30
2022-10-05T04:24:21.861Z,52.10
2022-10-05T04:26:51.316Z,52.30
2022-10-05T04:29:28.443Z,52.30
2022-10-05T04:32:05.830Z,52.30
2022-10-05T04:34:45.586Z,52.10
2022-10-05T04:37:15.623Z,52.30
2022-10-05T04:39:47.031Z,52.20
2022-10-05T04:42:17.589Z,52.30
2022-10-05T04:44:58.974Z,52.30
2022-10-05T04:47:37.219Z,52.40
2022-10-05T04:50:18.058Z,52.40
2022-10-05T04:52:50.238Z,52.40
2022-10-05T04:55:23.302Z,52.50
2022-10-05T04:57:51.551Z,52.40
2022-10-05T05:00:24.145Z,52.90
2022-10-05T05:03:17.955Z,52.20
2022-10-05T05:06:15.514Z,52.30
2022-10-05T05:08:47.374Z,52.60
2022-10-05T05:11:24.691Z,52.40
2022-10-05T05:14:12.409Z,52.40
2022-10-05T05:16:41.238Z,52.50
2022-10-05T05:19:25.589Z,52.60
2022-10-05T05:21:58.701Z,52.70
2022-10-05T05:24:33.024Z,52.50
2022-10-05T05:27:12.453Z,52.60
2022-10-05T05:29:45.917Z,52.50
2022-10-05T05:32:18.985Z,52.70
2022-10-05T05:34:55.949Z,52.60
2022-10-05T05:37:26.195Z,52.80
2022-10-05T05:39:56.596Z,52.80
2022-10-05T05:42:30.375Z,52.70
2022-10-05T05:44:58.837Z,52.50
2022-10-05T05:47:29.144Z,52.80
2022-10-05T05:50:11.736Z,52.80
2022-10-05T05:52:42.126Z,52.80
2022-10-05T05:55:13.669Z,52.80
2022-10-05T05:57:43.928Z,52.90
2022-10-05T06:00:19.806Z,52.90
2022-10-05T06:02:50.038Z,52.80
2022-10-05T06:05:33.901Z,52.90
2022-10-05T06:08:03.944Z,52.90
2022-10-05T06:10:34.820Z,52.90
2022-10-05T06:13:06.469Z,52.90
2022-10-05T06:15:35.996Z,52.80
2022-10-05T06:18:05.384Z,53.00
2022-10-05T06:20:37.923Z,52.90
2022-10-05T06:23:06.822Z,52.90
2022-10-05T06:25:37.424Z,52.90
2022-10-05T06:28:09.801Z,52.80
2022-10-05T06:30:45.941Z,52.80
2022-10-05T06:33:20.954Z,52.80
2022-10-05T06:35:57.528Z,52.90
2022-10-05T06:38:46.810Z,53.00
2022-10-05T06:41:17.891Z,52.90
2022-10-05T06:43:49.838Z,53.50
2022-10-05T06:46:21.350Z,53.10
2022-10-05T06:48:58.898Z,52.90
2022-10-05T06:51:31.099Z,53.00
2022-10-05T06:54:04.685Z,52.90
2022-10-05T06:56:34.311Z,52.90
2022-10-05T06:59:05.364Z,52.90
2022-10-05T07:01:39.663Z,53.00
2022-10-05T07:04:16.734Z,52.90
2022-10-05T07:06:47.224Z,53.00
2022-10-05T07:09:26.437Z,52.90
2022-10-05T07:12:04.822Z,52.80
2022-10-05T07:14:40.957Z,53.00
2022-10-05T07:17:27.279Z,52.80
2022-10-05T07:19:58.656Z,52.90
2022-10-05T07:22:48.501Z,53.00
2022-10-05T07:25:18.135Z,52.90
2022-10-05T07:27:51.697Z,52.90
2022-10-05T07:30:19.661Z,52.80
2022-10-05T07:32:52.699Z,53.10
2022-10-05T07:35:43.931Z,53.00
2022-10-05T07:38:14.026Z,52.80
2022-10-05T07:40:44.081Z,52.90
2022-10-05T07:43:23.231Z,52.90
2022-10-05T07:45:53.671Z,52.80
2022-10-05T07:48:22.486Z,52.90
2022-10-05T07:51:00.919Z,52.60
2022-10-05T07:53:32.545Z,52.90
2022-10-05T07:56:03.202Z,52.80
2022-10-05T07:58:32.889Z,52.70
2022-10-05T08:01:09.535Z,52.80
2022-10-05T08:03:44.463Z,52.80
2022-10-05T08:06:13.585Z,52.50
2022-10-05T08:08:46.060Z,52.60
2022-10-05T08:11:15.576Z,52.70
2022-10-05T08:13:45.951Z,52.80
2022-10-05T08:16:14.557Z,52.70
2022-10-05T08:18:49.337Z,52.70
2022-10-05T08:21:18.173Z,52.80
2022-10-05T08:23:48.653Z,52.70
2022-10-05T08:26:19.379Z,52.60
2022-10-05T08:28:51.006Z,52.70
2022-10-05T08:31:21.253Z,52.60
2022-10-05T08:33:55.568Z,52.70
2022-10-05T08:36:28.937Z,52.80
2022-10-05T08:38:59.270Z,52.60
2022-10-05T08:41:48.419Z,52.60
2022-10-05T08:44:51.232Z,52.70
2022-10-05T08:47:41.975Z,52.70
2022-10-05T08:50:20.902Z,52.70
2022-10-05T08:53:03.325Z,52.70
2022-10-05T08:55:37.806Z,52.50
2022-10-05T08:58:50.456Z,52.60
2022-10-05T09:01:21.858Z,52.60
2022-10-05T09:04:07.082Z,52.60
2022-10-05T09:06:56.260Z,52.80
2022-10-05T09:09:35.589Z,52.80
2022-10-05T09:12:19.865Z,52.70
2022-10-05T09:15:07.163Z,52.60
2022-10-05T09:18:07.210Z,52.80
2022-10-05T09:20:38.727Z,52.60
2022-10-05T09:23:14.092Z,52.50
2022-10-05T09:25:57.253Z,52.50
2022-10-05T09:28:31.217Z,52.50
2022-10-05T09:31:16.264Z,52.50
2022-10-05T09:34:16.053Z,52.40
2022-10-05T09:37:09.236Z,52.30
2022-10-05T09:39:45.838Z,52.20
2022-10-05T09:42:41.568Z,52.10
2022-10-05T09:45:44.272Z,52.00
2022-10-05T09:48:41.325Z,51.90
2022-10-05T09:51:41.754Z,52.00
2022-10-05T09:54:57.195Z,52.00
2022-10-05T09:57:53.352Z,51.80
2022-10-05T10:00:25.998Z,51.70
2022-10-05T10:03:18.538Z,51.30
2022-10-05T10:06:10.625Z,51.30
2022-10-05T10:08:44.970Z,51.40
2022-10-05T10:11:24.931Z,51.20
2022-10-05T10:14:11.379Z,51.20
2022-10-05T10:16:49.746Z,51.00
2022-10-05T10:19:45.798Z,50.90
2022-10-05T10:22:57.378Z,50.70
2022-10-05T10:25:34.709Z,51.00
2022-10-05T10:28:20.341Z,50.70
2022-10-05T10:30:59.316Z,50.80
2022-10-05T10:33:54.871Z,50.50
2022-10-05T10:36:23.984Z,50.60
2022-10-05T10:39:02.462Z,50.50
2022-10-05T10:41:55.712Z,50.50
2022-10-05T10:44:51.452Z,50.50
2022-10-05T10:47:48.382Z,50.60
2022-10-05T10:50:43.632Z,50.60
2022-10-05T10:53:23.587Z,50.50
2022-10-05T10:55:56.157Z,50.40
2022-10-05T10:58:45.594Z,50.30
2022-10-05T11:01:24.612Z,50.40
2022-10-05T11:04:28.625Z,50.20
2022-10-05T11:07:12.313Z,50.30
2022-10-05T11:10:00.267Z,50.10
2022-10-05T11:12:49.888Z,50.00
2022-10-05T11:15:53.367Z,50.10
2022-10-05T11:18:22.689Z,49.90
2022-10-05T11:21:31.819Z,49.80
2022-10-05T11:24:39.212Z,49.70
2022-10-05T11:27:26.257Z,49.90
2022-10-05T11:30:22.993Z,49.50
2022-10-05T11:33:14.544Z,49.40
2022-10-05T11:36:21.474Z,49.00
2022-10-05T11:39:04.477Z,49.20
2022-10-05T11:41:56.105Z,48.80
2022-10-05T11:44:43.398Z,49.00
2022-10-05T11:47:13.696Z,49.10
2022-10-05T11:49:42.461Z,49.10
2022-10-05T11:52:12.778Z,48.00
2022-10-05T11:55:11.116Z,47.60
2022-10-05T11:57:44.156Z,47.50
2022-10-05T12:00:15.042Z,47.10
2022-10-05T12:03:10.299Z,46.70
2022-10-05T12:05:42.200Z,46.60
2022-10-05T12:08:21.279Z,46.60
2022-10-05T12:10:52.870Z,46.80
2022-10-05T12:13:27.217Z,46.70
2022-10-05T12:15:56.846Z,46.80
2022-10-05T12:18:39.419Z,46.40
2022-10-05T12:21:10.561Z,46.60
2022-10-05T12:23:40.771Z,46.70
2022-10-05T12:26:11.000Z,44.40
2022-10-05T12:28:43.076Z,45.50
2022-10-05T12:31:24.093Z,42.40
2022-10-05T12:33:55.833Z,40.20
2022-10-05T12:36:35.951Z,39.70
2022-10-05T12:39:17.049Z,40.70
2022-10-05T12:41:47.539Z,38.60
2022-10-05T12:44:20.001Z,38.60
2022-10-05T12:46:52.748Z,39.10
2022-10-05T12:49:32.865Z,39.60
2022-10-05T12:52:01.225Z,39.60
2022-10-05T12:54:36.279Z,40.10
2022-10-05T12:57:07.024Z,40.80
2022-10-05T12:59:41.549Z,41.70
2022-10-05T13:02:16.675Z,42.00
2022-10-05T13:04:48.554Z,42.50
2022-10-05T13:07:29.667Z,43.10
2022-10-05T13:10:00.946Z,43.60
2022-10-05T13:12:35.987Z,44.00
2022-10-05T13:15:08.201Z,44.50
2022-10-05T13:17:38.993Z,44.80
2022-10-05T13:20:12.183Z,45.30
2022-10-05T13:22:41.454Z,45.30
2022-10-05T13:25:19.403Z,45.60
2022-10-05T13:27:49.954Z,45.70
2022-10-05T13:30:19.809Z,46.00
2022-10-05T13:32:48.246Z,46.20
2022-10-05T13:35:27.000Z,46.30
2022-10-05T13:38:01.638Z,46.60
2022-10-05T13:40:32.902Z,46.80
2022-10-05T13:43:03.948Z,47.00
2022-10-05T13:45:37.555Z,47.20
2022-10-05T13:48:12.154Z,47.20
2022-10-05T13:50:43.516Z,47.40
2022-10-05T13:53:15.484Z,48.20
2022-10-05T13:55:46.609Z,47.70
2022-10-05T13:58:20.108Z,47.80
2022-10-05T14:00:51.101Z,47.80
2022-10-05T14:03:27.467Z,48.00
2022-10-05T14:05:57.410Z,48.00
2022-10-05T14:08:28.362Z,48.10
2022-10-05T14:10:56.969Z,48.20
2022-10-05T14:13:27.247Z,48.30
2022-10-05T14:16:07.359Z,48.20
2022-10-05T14:18:37.500Z,48.40
2022-10-05T14:21:18.019Z,48.30
2022-10-05T14:23:45.920Z,48.30
2022-10-05T14:26:22.136Z,48.30
2022-10-05T14:28:58.638Z,48.20
2022-10-05T14:31:32.744Z,48.10
2022-10-05T14:34:23.301Z,48.00
2022-10-05T14:36:53.408Z,48.00
2022-10-05T14:39:21.135Z,47.90
2022-10-05T14:41:50.280Z,47.70
2022-10-05T14:44:27.663Z,47.70
2022-10-05T14:46:58.765Z,47.50
2022-10-05T14:49:27.800Z,47.70
2022-10-05T14:51:56.586Z,47.50
2022-10-05T14:54:30.903Z,47.70
2022-10-05T14:57:12.530Z,47.70
2022-10-05T15:00:04.919Z,47.60
2022-10-05T15:02:45.520Z,47.70
2022-10-05T15:05:16.410Z,47.80
2022-10-05T15:07:45.873Z,47.70
2022-10-05T15:10:29.622Z,47.80
2022-10-05T15:13:00.041Z,47.80
2022-10-05T15:15:32.827Z,47.90
2022-10-05T15:18:03.698Z,47.90
2022-10-05T15:20:35.115Z,48.00
2022-10-05T15:23:11.277Z,48.20
2022-10-05T15:25:43.086Z,48.10
2022-10-05T15:28:13.811Z,48.20
2022-10-05T15:30:42.696Z,48.20
2022-10-05T15:33:18.425Z,48.20
2022-10-05T15:36:05.300Z,48.00
2022-10-05T15:38:36.921Z,48.20
2022-10-05T15:41:10.845Z,48.30
2022-10-05T15:43:52.675Z,48.40
2022-10-05T15:46:23.482Z,49.30
2022-10-05T15:49:08.714Z,48.50
2022-10-05T15:51:45.360Z,48.50
2022-10-05T15:54:44.097Z,48.60
2022-10-05T15:57:20.636Z,49.00
2022-10-05T15:59:57.839Z,48.90
2022-10-05T16:02:29.779Z,48.90
2022-10-05T16:05:04.943Z,49.00
2022-10-05T16:07:54.427Z,49.10
2022-10-05T16:10:23.780Z,49.00
2022-10-05T16:13:04.406Z,49.20
2022-10-05T16:15:34.536Z,49.30
2022-10-05T16:18:32.421Z,49.50
2022-10-05T16:21:07.055Z,49.50
2022-10-05T16:23:39.003Z,49.70
2022-10-05T16:26:14.619Z,49.80
2022-10-05T16:28:49.951Z,49.80
2022-10-05T16:31:20.321Z,49.90
2022-10-05T16:33:56.370Z,49.80
2022-10-05T16:36:32.424Z,49.90
2022-10-05T16:39:04.064Z,50.00
2022-10-05T16:41:35.161Z,50.00
2022-10-05T16:44:07.904Z,50.10
2022-10-05T16:46:38.092Z,50.10
2022-10-05T16:49:10.913Z,50.30
2022-10-05T16:51:44.815Z,50.20
2022-10-05T16:54:18.315Z,50.20
2022-10-05T16:56:48.603Z,50.90
2022-10-05T16:59:42.720Z,51.50
2022-10-05T17:02:15.602Z,51.70
2022-10-05T17:04:46.032Z,51.80
2022-10-05T17:07:57.282Z,51.80
2022-10-05T17:10:41.110Z,51.80
2022-10-05T17:13:21.054Z,51.80
2022-10-05T17:16:00.693Z,51.90
2022-10-05T17:18:49.676Z,51.90
2022-10-05T17:21:19.049Z,51.70
2022-10-05T17:23:54.593Z,51.70
2022-10-05T17:26:54.919Z,51.70
2022-10-05T17:29:42.656Z,51.60
2022-10-05T17:32:12.249Z,51.60
2022-10-05T17:34:40.441Z,51.60
2022-10-05T17:37:19.232Z,51.60
2022-10-05T17:39:49.121Z,51.60
2022-10-05T17:42:52.379Z,51.60
2022-10-05T17:45:52.721Z,51.50
2022-10-05T17:48:43.656Z,51.50
2022-10-05T17:52:09.407Z,51.60
2022-10-05T17:55:19.462Z,51.70
2022-10-05T17:57:47.204Z,51.70
2022-10-05T18:00:44.557Z,51.70
2022-10-05T18:03:37.715Z,51.60
2022-10-05T18:06:31.800Z,51.60
2022-10-05T18:09:20.854Z,51.60
2022-10-05T18:12:04.112Z,51.60
2022-10-05T18:14:51.439Z,51.60
2022-10-05T18:17:36.712Z,51.60
2022-10-05T18:20:33.670Z,51.70
2022-10-05T18:23:35.390Z,51.70
2022-10-05T18:26:07.835Z,51.60
2022-10-05T18:28:41.478Z,51.70
2022-10-05T18:31:16.594Z,51.70
2022-10-05T18:33:53.531Z,51.60
2022-10-05T18:36:28.828Z,51.70
2022-10-05T18:39:00.405Z,51.60
2022-10-05T18:41:37.720Z,51.60
2022-10-05T18:44:17.793Z,51.60
2022-10-05T18:46:47.904Z,51.70
2022-10-05T18:49:30.452Z,51.50
2022-10-05T18:52:01.761Z,51.70
2022-10-05T18:54:38.122Z,51.70
2022-10-05T18:57:25.738Z,51.60
2022-10-05T18:59:55.571Z,51.70
2022-10-05T19:02:24.548Z,51.70
2022-10-05T19:05:02.436Z,51.80
2022-10-05T19:07:38.700Z,51.70
2022-10-05T19:10:11.985Z,51.60
2022-10-05T19:12:47.123Z,51.60
2022-10-05T19:15:19.272Z,51.60
2022-10-05T19:17:54.426Z,51.60
2022-10-05T19:20:23.489Z,51.50
2022-10-05T19:23:03.885Z,51.50
2022-10-05T19:25:37.905Z,51.50
2022-10-05T19:28:12.166Z,51.50
2022-10-05T19:30:49.411Z,51.80
2022-10-05T19:33:27.183Z,51.40
2022-10-05T19:36:01.444Z,51.60
2022-10-05T19:38:33.722Z,51.40
2022-10-05T19:41:05.119Z,55.90
2022-10-05T19:43:40.547Z,55.00
2022-10-05T19:46:17.683Z,53.50
2022-10-05T19:48:48.533Z,52.50
2022-10-05T19:51:18.712Z,51.90
2022-10-05T19:53:50.267Z,51.60
2022-10-05T19:56:20.547Z,51.30
2022-10-05T19:58:48.885Z,51.00
2022-10-05T20:01:25.004Z,51.00
2022-10-05T20:03:53.400Z,50.70
2022-10-05T20:06:22.666Z,50.80
2022-10-05T20:08:52.878Z,50.70
2022-10-05T20:11:21.225Z,50.70
2022-10-05T20:14:20.105Z,50.60
2022-10-05T20:17:05.645Z,50.50
2022-10-05T20:19:51.579Z,50.70
2022-10-05T20:22:32.790Z,50.60
2022-10-05T20:25:01.990Z,50.60
2022-10-05T20:27:55.396Z,50.60
2022-10-05T20:30:25.286Z,50.40
2022-10-05T20:32:57.548Z,50.50
2022-10-05T20:35:27.682Z,50.50
2022-10-05T20:38:00.300Z,50.50
2022-10-05T20:40:29.348Z,50.50
2022-10-05T20:42:57.300Z,50.40
2022-10-05T20:45:26.643Z,50.40
2022-10-05T20:47:55.453Z,50.40
2022-10-05T20:50:23.417Z,50.40
2022-10-05T20:52:51.422Z,50.40
2022-10-05T20:55:20.769Z,50.40
2022-10-05T20:57:49.010Z,50.30
2022-10-05T21:00:17.124Z,50.40
2022-10-05T21:02:46.885Z,50.40
2022-10-05T21:05:14.851Z,50.50
2022-10-05T21:07:43.041Z,50.40
2022-10-05T21:10:14.809Z,50.40
2022-10-05T21:12:42.768Z,50.40
2022-10-05T21:15:10.947Z,50.40
2022-10-05T21:17:39.949Z,50.40
2022-10-05T21:20:11.163Z,50.40
2022-10-05T21:22:38.902Z,50.40
2022-10-05T21:25:09.329Z,50.50
2022-10-05T21:27:37.063Z,50.50
2022-10-05T21:30:05.411Z,51.10
2022-10-05T21:32:33.367Z,50.50
2022-10-05T21:35:01.414Z,50.60
2022-10-05T21:37:30.680Z,50.70
2022-10-05T21:39:58.581Z,50.60
2022-10-05T21:42:26.498Z,50.70
2022-10-05T21:44:54.472Z,50.80
2022-10-05T21:47:22.453Z,50.90
2022-10-05T21:49:50.401Z,51.00
2022-10-05T21:52:18.319Z,51.00
2022-10-05T21:54:47.908Z,51.10
2022-10-05T21:57:16.183Z,51.20
2022-10-05T21:59:44.124Z,51.30
2022-10-05T22:02:12.101Z,51.50
2022-10-05T22:04:40.050Z,51.40
2022-10-05T22:07:14.579Z,51.50
2022-10-05T22:09:42.331Z,51.60
2022-10-05T22:12:11.828Z,51.70
2022-10-05T22:14:39.540Z,51.70
2022-10-05T22:17:07.767Z,51.70
2022-10-05T22:19:35.739Z,51.80
2022-10-05T22:22:03.475Z,51.70
2022-10-05T22:24:31.472Z,51.80
2022-10-05T22:26:59.416Z,51.80
2022-10-05T22:29:29.473Z,51.80
2022-10-05T22:31:57.553Z,51.90
2022-10-05T22:34:25.544Z,51.80
2022-10-05T22:36:53.570Z,51.70
2022-10-05T22:39:21.538Z,51.90
2022-10-05T22:41:50.576Z,51.90
2022-10-05T22:44:18.621Z,52.00
2022-10-05T22:46:48.138Z,51.90
2022-10-05T22:49:16.081Z,52.00
2022-10-05T22:51:43.833Z,52.00
2022-10-05T22:54:11.562Z,51.90
2022-10-05T22:56:39.973Z,52.00
2022-10-05T22:59:07.914Z,52.00
2022-10-05T23:01:35.929Z,52.00
2022-10-05T23:04:05.414Z,52.00
2022-10-05T23:06:33.802Z,52.50
2022-10-05T23:09:01.745Z,51.90
2022-10-05T23:11:30.191Z,52.00
2022-10-05T23:13:58.649Z,51.90
2022-10-05T23:16:27.442Z,51.90
2022-10-05T23:18:55.634Z,51.90
2022-10-05T23:21:25.704Z,52.00
2022-10-05T23:23:53.471Z,51.90
2022-10-05T23:26:22.043Z,51.90
2022-10-05T23:28:50.271Z,52.00
2022-10-05T23:31:18.965Z,51.80
2022-10-05T23:33:47.114Z,51.90
2022-10-05T23:36:15.762Z,52.00
2022-10-05T23:38:45.667Z,51.90
2022-10-05T23:41:13.527Z,52.00
2022-10-05T23:43:41.878Z,52.00
2022-10-05T23:46:10.047Z,52.00
2022-10-05T23:48:39.382Z,52.10
2022-10-05T23:51:07.494Z,52.10
2022-10-05T23:53:35.534Z,52.10
2022-10-05T23:56:05.027Z,52.20
2022-10-05T23:58:33.522Z,52.20
